LFOH

Le Havre Octeville Airport

Le Havre/Octeville, France
METAR LFOH 241130Z AUTO 32005KT 280V340 3100 BR BKN002 OVC017 14/13 Q1018 TEMPO 0500 FG VV///
Observed Flight Rules
May-24 @ 11:30 UTC (25 minutes ago) Instrument Flight Rules
Wind Visibility Clouds Conditions
320° at 5 knots 3,106 meters
  • Broken at 200' AGL
  • Overcast at 1,700' AGL
  • Mist
Temperatures Readings
Current 14°C / 57°F
Dewpoint 13°C / 55°F
Humidity 94%
Altimeter 30.06" Hg
Pressure 1018 hPa
Elevation 103
METAR LFOH 241130Z AUTO 32005KT 280V340 3100 BR BKN002 OVC017 14/13 Q1018 TEMPO 0500 FG VV///
Observed Flight Rules
May-24 @ 11:30 UTC
(25 minutes ago)
LIFR
Wind Visibility
320° at 5 knots 3,106 meters
Clouds
  • Broken at 200' AGL
  • Overcast at 1,700' AGL
Conditions
  • Mist
Temperature Dewpoint
14°C / 57°F 13°C / 55°F
Humidity Altimeter Pressure
94% 30.06" Hg 1018 hPa